createdAt,value
2023-05-31T06:21:59.393Z,100.00
2023-05-31T06:31:59.358Z,89.25
2023-05-31T06:42:00.244Z,82.60
2023-05-31T06:51:59.177Z,79.60
2023-05-31T07:01:59.269Z,75.94
2023-05-31T07:11:59.362Z,67.03
2023-05-31T07:21:59.381Z,67.78
2023-05-31T07:31:59.240Z,66.44
2023-05-31T07:41:59.413Z,59.58
2023-05-31T07:51:59.477Z,59.03
2023-05-31T08:01:59.401Z,57.23
2023-05-31T08:11:59.693Z,57.33
2023-05-31T08:21:59.675Z,57.37
2023-05-31T08:31:59.846Z,51.98
2023-05-31T08:41:59.599Z,50.99
2023-05-31T08:51:59.652Z,44.27
2023-05-31T09:01:59.785Z,45.06
2023-05-31T09:11:59.691Z,47.24
2023-05-31T09:21:59.662Z,47.01
2023-05-31T09:32:00.747Z,47.86
2023-05-31T09:41:59.600Z,48.42
2023-05-31T09:51:59.648Z,47.20
2023-05-31T10:01:59.651Z,46.92
2023-05-31T10:12:00.589Z,47.21
2023-05-31T10:21:59.652Z,44.44
2023-05-31T10:31:59.611Z,43.44
2023-05-31T10:41:59.667Z,45.64
2023-05-31T10:51:59.743Z,42.98
2023-05-31T11:01:59.650Z,43.70
2023-05-31T11:11:59.775Z,45.47
2023-05-31T11:21:59.617Z,44.74
2023-05-31T11:31:59.748Z,42.78
2023-05-31T11:41:59.772Z,43.04
2023-05-31T11:51:59.722Z,46.24
2023-05-31T12:01:59.683Z,42.97
2023-05-31T12:11:59.852Z,42.38
2023-05-31T12:21:59.740Z,41.49
2023-05-31T12:31:59.868Z,41.76
2023-05-31T12:41:59.872Z,43.53
2023-05-31T12:51:59.716Z,42.22
2023-05-31T13:01:59.919Z,40.58
2023-05-31T13:11:59.854Z,41.50
2023-05-31T13:21:59.905Z,39.54
2023-05-31T13:31:59.702Z,41.08
2023-05-31T13:41:59.838Z,41.50
2023-05-31T13:51:59.761Z,40.43
2023-05-31T14:01:59.825Z,39.70
2023-05-31T14:11:59.948Z,39.89
2023-05-31T14:22:00.165Z,38.98
2023-05-31T14:32:00.006Z,39.58
2023-05-31T14:42:00.479Z,41.86
2023-05-31T14:52:00.483Z,39.43
2023-05-31T15:02:00.432Z,40.73
2023-05-31T15:12:00.652Z,38.79
2023-05-31T15:22:00.795Z,38.31
2023-05-31T15:32:00.452Z,39.25
2023-05-31T15:42:00.534Z,36.67
2023-05-31T15:52:00.389Z,38.13
2023-05-31T16:02:00.591Z,39.90
2023-05-31T16:12:00.435Z,39.30
2023-05-31T16:22:00.576Z,40.76
2023-05-31T16:32:00.587Z,39.83
2023-05-31T16:42:00.422Z,40.30
2023-05-31T16:52:00.723Z,40.77
2023-05-31T17:02:00.604Z,40.96
2023-05-31T17:12:00.524Z,41.56
2023-05-31T17:22:00.871Z,43.21
2023-05-31T17:32:00.886Z,42.40
2023-05-31T17:42:00.722Z,42.46
2023-05-31T17:52:12.297Z,42.40
2023-05-31T18:02:00.900Z,43.59
2023-05-31T18:12:00.726Z,44.04
2023-05-31T18:22:00.946Z,45.20
2023-05-31T18:32:00.663Z,45.93
2023-05-31T18:42:00.846Z,48.33
2023-05-31T18:52:01.000Z,48.58
2023-05-31T19:02:01.163Z,51.14
2023-05-31T19:12:01.520Z,53.62
2023-05-31T19:22:01.325Z,55.30
